createdAt,value
2019-03-20T00:01:23.569Z,1.73
2019-03-20T00:03:53.946Z,1.90
2019-03-20T00:06:23.533Z,1.87
2019-03-20T00:08:53.829Z,1.90
2019-03-20T00:11:24.146Z,1.80
2019-03-20T00:14:05.338Z,1.70
2019-03-20T00:16:37.836Z,1.70
2019-03-20T00:19:11.979Z,2.00
2019-03-20T00:21:42.480Z,2.27
2019-03-20T00:24:14.801Z,1.90
2019-03-20T00:26:48.112Z,2.03
2019-03-20T00:29:17.849Z,1.90
2019-03-20T00:31:47.141Z,1.97
2019-03-20T00:37:50.497Z,1.30
2019-03-20T00:40:19.993Z,2.20
2019-03-20T00:42:50.005Z,1.87
2019-03-20T00:45:50.023Z,1.80
2019-03-20T00:48:19.405Z,1.33
2019-03-20T00:50:48.818Z,1.60
2019-03-20T00:53:20.530Z,1.70
2019-03-20T00:55:53.913Z,2.17
2019-03-20T00:58:23.792Z,2.00
2019-03-20T01:00:55.643Z,1.77
2019-03-20T01:03:56.274Z,2.23
2019-03-20T01:06:26.989Z,2.40
2019-03-20T01:09:01.121Z,2.40
2019-03-20T01:11:31.596Z,2.33
2019-03-20T01:17:44.866Z,2.37
2019-03-20T01:20:15.725Z,2.97
2019-03-20T01:22:45.352Z,2.73
2019-03-20T01:25:15.562Z,3.10
2019-03-20T01:27:44.769Z,2.90
2019-03-20T01:30:33.829Z,2.57
2019-03-20T01:33:05.916Z,2.47
2019-03-20T01:35:37.813Z,2.57
2019-03-20T01:38:07.605Z,2.50
2019-03-20T01:40:36.891Z,2.33
2019-03-20T01:43:06.669Z,2.80
2019-03-20T01:45:52.269Z,3.00
2019-03-20T01:48:31.406Z,3.03
2019-03-20T01:51:20.855Z,2.87
2019-03-20T01:53:52.021Z,2.53
2019-03-20T01:56:21.955Z,3.00
2019-03-20T01:58:51.790Z,2.83
2019-03-20T02:01:20.713Z,2.80
2019-03-20T02:03:50.362Z,2.43
2019-03-20T02:06:21.085Z,2.57
2019-03-20T02:08:51.450Z,2.40
2019-03-20T02:11:21.571Z,2.70
2019-03-20T02:13:51.464Z,2.60
2019-03-20T02:16:20.803Z,2.57
2019-03-20T02:18:49.741Z,2.60
2019-03-20T02:21:18.688Z,2.50
2019-03-20T02:23:47.775Z,2.77
2019-03-20T02:26:19.717Z,2.67
2019-03-20T02:28:50.238Z,3.07
2019-03-20T02:31:19.146Z,2.67
2019-03-20T02:33:49.907Z,3.10
2019-03-20T02:36:21.809Z,3.03
2019-03-20T02:38:51.191Z,2.50
2019-03-20T02:41:30.843Z,2.50
2019-03-20T02:44:00.485Z,2.27
2019-03-20T02:46:30.393Z,2.53
2019-03-20T02:49:01.203Z,2.57
2019-03-20T02:51:30.169Z,2.67
2019-03-20T02:53:59.451Z,2.10
2019-03-20T02:56:28.457Z,1.97
2019-03-20T02:58:58.061Z,2.33
2019-03-20T03:01:28.566Z,2.10
2019-03-20T03:03:58.478Z,1.90
2019-03-20T03:06:29.718Z,2.07
2019-03-20T03:09:01.395Z,2.20
2019-03-20T03:11:31.126Z,1.73
2019-03-20T03:14:16.814Z,2.00
2019-03-20T03:16:46.570Z,1.90
2019-03-20T03:19:18.675Z,2.20
2019-03-20T03:21:56.146Z,1.73
2019-03-20T03:24:25.496Z,1.77
2019-03-20T03:26:55.761Z,1.97
2019-03-20T03:29:32.545Z,1.77
2019-03-20T03:32:02.473Z,1.50
2019-03-20T03:34:32.832Z,2.10
2019-03-20T03:37:03.403Z,1.63
2019-03-20T03:39:32.460Z,1.67
2019-03-20T03:42:01.806Z,1.40
2019-03-20T03:44:32.014Z,1.80
2019-03-20T03:47:04.253Z,1.83
2019-03-20T03:49:36.269Z,1.63
2019-03-20T03:52:06.208Z,1.80
2019-03-20T03:54:35.234Z,1.70
2019-03-20T03:57:07.244Z,1.30
2019-03-20T03:59:37.256Z,1.50
2019-03-20T04:02:07.158Z,1.80
2019-03-20T04:04:36.726Z,1.80
2019-03-20T04:07:05.697Z,1.30
2019-03-20T04:09:35.559Z,2.00
2019-03-20T04:12:06.956Z,1.93
2019-03-20T04:14:42.287Z,2.00
2019-03-20T04:17:28.175Z,1.70
2019-03-20T04:19:58.213Z,1.63
2019-03-20T04:22:27.916Z,1.60
2019-03-20T04:24:57.143Z,1.60
2019-03-20T04:27:26.854Z,1.50
2019-03-20T04:29:56.981Z,1.80
2019-03-20T04:32:27.014Z,1.40
2019-03-20T04:34:59.370Z,1.80
2019-03-20T04:37:29.545Z,1.70
2019-03-20T04:40:04.743Z,1.50
2019-03-20T04:42:34.026Z,1.60
2019-03-20T04:45:06.733Z,1.60
2019-03-20T04:47:38.245Z,1.43
2019-03-20T04:50:12.875Z,1.70
2019-03-20T04:52:42.658Z,1.90
2019-03-20T04:55:42.350Z,1.87
2019-03-20T04:58:13.274Z,1.73
2019-03-20T05:00:42.698Z,2.00
2019-03-20T05:03:14.395Z,1.57
2019-03-20T05:05:44.352Z,1.57
2019-03-20T05:08:14.986Z,2.20
2019-03-20T05:10:45.195Z,1.87
2019-03-20T05:13:14.492Z,1.67
2019-03-20T05:15:44.045Z,1.40
2019-03-20T05:18:14.441Z,1.73
2019-03-20T05:20:47.499Z,2.00
2019-03-20T05:23:17.071Z,1.90
2019-03-20T05:25:47.904Z,1.87
2019-03-20T05:28:17.368Z,1.40
2019-03-20T05:30:48.376Z,1.87
2019-03-20T05:33:18.428Z,1.53
2019-03-20T05:35:47.882Z,1.70
2019-03-20T05:38:17.868Z,2.53
2019-03-20T05:40:49.554Z,2.33
2019-03-20T05:43:21.652Z,2.50
2019-03-20T05:45:53.740Z,2.23
2019-03-20T05:48:35.045Z,2.67
2019-03-20T05:51:31.276Z,2.20
2019-03-20T05:54:53.021Z,2.80
2019-03-20T05:57:25.087Z,2.33
2019-03-20T06:00:00.541Z,2.37
2019-03-20T06:02:31.607Z,1.90
2019-03-20T06:05:06.107Z,1.93
2019-03-20T06:07:43.997Z,1.73
2019-03-20T06:10:15.023Z,1.70
2019-03-20T06:12:45.977Z,2.13
2019-03-20T06:15:21.018Z,2.17
2019-03-20T06:17:54.715Z,1.50
2019-03-20T06:20:30.545Z,2.27
2019-03-20T06:23:04.776Z,1.80
2019-03-20T06:29:09.978Z,2.50
2019-03-20T06:31:52.297Z,2.17
2019-03-20T06:34:42.743Z,1.63
2019-03-20T06:37:15.893Z,2.27
2019-03-20T06:39:46.745Z,2.17
2019-03-20T06:42:19.152Z,2.10
2019-03-20T06:44:51.525Z,2.47
2019-03-20T06:47:29.214Z,2.70
2019-03-20T06:50:14.904Z,1.93
2019-03-20T06:53:18.351Z,2.07
2019-03-20T06:55:52.151Z,2.50
2019-03-20T06:58:32.605Z,2.60
2019-03-20T07:01:30.692Z,2.07
2019-03-20T07:04:41.498Z,2.10
2019-03-20T07:07:43.629Z,2.17
2019-03-20T07:10:43.465Z,2.53
2019-03-20T07:13:13.854Z,1.83
2019-03-20T07:19:13.064Z,2.03
2019-03-20T07:21:42.222Z,2.13
2019-03-20T07:24:26.864Z,2.10
2019-03-20T07:27:00.051Z,2.03
2019-03-20T07:29:29.158Z,2.10
2019-03-20T07:31:58.149Z,2.20
2019-03-20T07:34:40.107Z,2.03
2019-03-20T07:37:14.771Z,2.13
2019-03-20T07:39:47.664Z,2.30
2019-03-20T07:42:20.113Z,2.30
2019-03-20T07:44:55.009Z,2.40
2019-03-20T07:47:27.991Z,2.77
2019-03-20T07:49:58.269Z,2.97
2019-03-20T07:52:32.283Z,2.70
2019-03-20T07:55:07.861Z,2.80
2019-03-20T07:58:02.708Z,2.47
2019-03-20T08:00:33.842Z,2.97
2019-03-20T08:03:03.866Z,3.20
2019-03-20T08:05:35.446Z,3.10
2019-03-20T08:08:07.459Z,2.63
2019-03-20T08:10:38.520Z,3.10
2019-03-20T08:13:07.550Z,3.53
2019-03-20T08:16:06.379Z,3.47
2019-03-20T08:18:36.206Z,3.40
2019-03-20T08:21:07.597Z,3.67
2019-03-20T08:23:43.574Z,3.50
2019-03-20T08:26:53.111Z,3.30
2019-03-20T08:29:26.479Z,4.40
2019-03-20T08:32:00.570Z,3.93
2019-03-20T08:34:31.576Z,3.90
2019-03-20T08:37:03.983Z,4.40
2019-03-20T08:39:35.599Z,5.20
2019-03-20T08:42:10.389Z,5.83
2019-03-20T08:47:58.366Z,6.33
2019-03-20T08:50:46.227Z,5.67
2019-03-20T08:53:18.686Z,5.90
2019-03-20T08:55:50.522Z,6.17
2019-03-20T08:58:24.637Z,6.83
2019-03-20T09:00:54.983Z,7.50
2019-03-20T09:03:42.649Z,8.23
2019-03-20T09:06:21.543Z,7.73
2019-03-20T09:08:56.141Z,7.87
2019-03-20T09:11:28.183Z,8.60
2019-03-20T09:14:32.721Z,7.90
2019-03-20T09:17:02.965Z,11.80
2019-03-20T09:19:42.484Z,14.13
2019-03-20T09:22:30.624Z,8.90
2019-03-20T09:25:43.273Z,10.60
2019-03-20T09:28:13.930Z,9.50
2019-03-20T09:30:55.480Z,9.80
2019-03-20T09:33:26.506Z,10.70
2019-03-20T09:36:05.726Z,9.80
2019-03-20T09:38:44.779Z,10.60
2019-03-20T09:41:07.618Z,10.30
2019-03-20T09:43:44.219Z,11.20
2019-03-20T09:46:14.889Z,11.63
2019-03-20T09:48:45.354Z,12.57
2019-03-20T09:51:16.725Z,12.20
2019-03-20T09:53:46.566Z,12.63
2019-03-20T09:56:19.571Z,12.07
2019-03-20T09:59:10.340Z,12.40
2019-03-20T10:01:42.296Z,12.87
2019-03-20T10:04:12.744Z,12.23
2019-03-20T10:06:58.466Z,12.83
2019-03-20T10:09:43.674Z,13.27
2019-03-20T10:12:13.669Z,13.27
2019-03-20T10:14:43.464Z,13.97
2019-03-20T10:17:13.418Z,14.07
2019-03-20T10:19:45.133Z,13.90
2019-03-20T10:22:16.918Z,13.80
2019-03-20T10:25:03.941Z,14.67
2019-03-20T10:27:42.546Z,15.30
2019-03-20T10:30:15.897Z,14.47
2019-03-20T10:33:06.281Z,14.23
2019-03-20T10:35:50.475Z,14.37
2019-03-20T10:38:20.849Z,13.93
2019-03-20T10:40:51.771Z,13.53
2019-03-20T10:43:35.915Z,14.20
2019-03-20T10:46:21.897Z,14.33
2019-03-20T10:48:56.456Z,14.57
2019-03-20T10:51:44.889Z,14.33
2019-03-20T10:54:20.005Z,18.20
2019-03-20T10:57:10.640Z,16.80
2019-03-20T10:59:55.410Z,17.23
2019-03-20T11:02:30.892Z,17.10
2019-03-20T11:05:30.092Z,17.30
2019-03-20T11:08:02.247Z,16.73
2019-03-20T11:10:41.541Z,17.60
2019-03-20T11:16:44.307Z,18.80
2019-03-20T11:19:23.299Z,23.30
2019-03-20T11:22:19.056Z,18.97
2019-03-20T11:25:01.104Z,19.13
2019-03-20T11:40:53.234Z,21.40
2019-03-20T11:55:30.581Z,22.77
2019-03-20T11:59:03.846Z,22.93
2019-03-20T12:05:10.123Z,23.87
2019-03-20T12:07:51.411Z,23.00
2019-03-20T12:10:26.158Z,22.53
2019-03-20T12:13:23.269Z,24.33
2019-03-20T13:37:46.031Z,23.20
2019-03-20T13:45:25.432Z,25.97
2019-03-20T13:50:52.694Z,26.30
2019-03-20T13:53:57.991Z,27.20
2019-03-20T13:56:57.555Z,23.33
2019-03-20T14:06:46.206Z,25.17
2019-03-20T14:24:08.901Z,26.93
2019-03-20T14:27:12.129Z,26.57
2019-03-20T14:41:29.206Z,26.57
2019-03-20T14:48:08.803Z,26.80
2019-03-20T14:51:08.195Z,27.73
2019-03-20T15:01:13.086Z,26.47
2019-03-20T15:04:04.487Z,30.30
2019-03-20T15:06:36.362Z,27.47
2019-03-20T15:09:49.309Z,27.50
2019-03-20T15:12:47.790Z,26.23
2019-03-20T15:15:44.853Z,28.20
2019-03-20T15:18:43.104Z,25.53
2019-03-20T15:21:28.450Z,26.10
2019-03-20T15:24:44.196Z,26.60
2019-03-20T15:28:12.420Z,26.50
2019-03-20T15:31:39.949Z,25.57
2019-03-20T15:38:00.277Z,25.23
2019-03-20T15:47:12.630Z,25.83
2019-03-20T15:50:09.301Z,26.37
2019-03-20T15:53:17.442Z,25.93
2019-03-20T15:55:56.659Z,28.20
2019-03-20T15:59:23.993Z,26.60
2019-03-20T16:05:59.748Z,25.73
2019-03-20T16:08:46.259Z,28.37
2019-03-20T16:11:39.435Z,23.73
2019-03-20T16:14:35.291Z,22.80
2019-03-20T16:17:14.287Z,21.70
2019-03-20T16:19:47.774Z,20.73
2019-03-20T16:22:38.819Z,21.23
2019-03-20T16:25:21.282Z,19.90
2019-03-20T16:28:02.849Z,18.67
2019-03-20T16:30:36.082Z,20.27
2019-03-20T16:33:07.754Z,18.77
2019-03-20T16:35:48.456Z,19.87
2019-03-20T16:38:22.611Z,19.37
2019-03-20T16:40:53.725Z,20.13
2019-03-20T16:43:26.700Z,21.47
2019-03-20T16:46:12.002Z,22.40
2019-03-20T16:48:53.422Z,23.27
2019-03-20T16:51:26.986Z,22.63
2019-03-20T16:54:13.544Z,23.90
2019-03-20T16:56:44.384Z,23.20
2019-03-20T16:59:20.868Z,20.87
2019-03-20T17:01:50.461Z,20.93
2019-03-20T17:04:24.046Z,18.87
2019-03-20T17:06:58.105Z,19.90
2019-03-20T17:12:33.570Z,16.27
2019-03-20T17:15:33.898Z,14.90
2019-03-20T17:18:08.041Z,14.73
2019-03-20T17:20:51.458Z,15.37
2019-03-20T17:30:39.035Z,12.63
2019-03-20T17:33:42.799Z,11.30
2019-03-20T17:39:22.061Z,12.83
2019-03-20T17:41:55.600Z,11.30
2019-03-20T17:44:25.598Z,11.80
2019-03-20T17:46:57.828Z,10.83
2019-03-20T17:49:31.625Z,10.80
2019-03-20T17:52:02.521Z,10.50
2019-03-20T17:54:32.029Z,9.67
2019-03-20T17:57:01.098Z,32.57
2019-03-20T17:59:34.399Z,59.33
2019-03-20T18:02:05.705Z,10.97
2019-03-20T18:04:35.368Z,10.83
2019-03-20T18:07:05.859Z,10.23
2019-03-20T18:09:35.562Z,10.37
2019-03-20T18:12:24.498Z,10.30
2019-03-20T18:14:56.637Z,9.90
2019-03-20T18:17:27.714Z,9.40
2019-03-20T18:20:03.555Z,9.87
2019-03-20T18:22:32.791Z,9.60
2019-03-20T18:31:32.950Z,12.17
2019-03-20T18:34:11.185Z,8.87
2019-03-20T18:36:42.059Z,9.13
2019-03-20T18:39:14.509Z,9.80
2019-03-20T18:41:57.390Z,16.83
2019-03-20T18:44:20.034Z,12.50
2019-03-20T18:46:58.674Z,11.50
2019-03-20T18:49:29.109Z,10.47
2019-03-20T18:51:58.312Z,10.13
2019-03-20T18:54:31.023Z,9.80
2019-03-20T18:57:00.433Z,10.87
2019-03-20T18:59:30.779Z,10.20
2019-03-20T19:02:00.498Z,9.67
2019-03-20T19:04:30.621Z,11.77
2019-03-20T19:07:00.687Z,9.97
2019-03-20T19:09:30.127Z,10.57
2019-03-20T19:12:08.147Z,10.80
2019-03-20T19:14:32.269Z,10.30
2019-03-20T19:17:01.281Z,10.20
2019-03-20T19:19:30.360Z,10.53
2019-03-20T19:22:00.064Z,9.80
2019-03-20T19:24:39.238Z,10.87
2019-03-20T19:27:08.826Z,10.50
2019-03-20T19:29:38.518Z,10.27
2019-03-20T19:32:13.010Z,9.80
2019-03-20T19:34:50.691Z,9.47
2019-03-20T19:37:20.269Z,9.83
2019-03-20T19:39:52.472Z,9.57
2019-03-20T19:42:23.237Z,9.73
2019-03-20T19:44:55.939Z,13.07
2019-03-20T19:47:26.461Z,9.93
2019-03-20T19:49:55.477Z,9.80
2019-03-20T19:52:27.541Z,9.10
2019-03-20T19:54:59.559Z,8.70
2019-03-20T19:57:30.682Z,8.73
2019-03-20T20:00:04.497Z,9.47
2019-03-20T20:02:34.078Z,8.57
2019-03-20T20:05:15.016Z,7.53
2019-03-20T20:07:37.859Z,8.40
2019-03-20T20:10:10.939Z,8.67
2019-03-20T20:12:45.151Z,11.03
2019-03-20T20:15:25.335Z,8.07
2019-03-20T20:17:56.013Z,9.40
2019-03-20T20:20:25.154Z,9.33
2019-03-20T20:22:54.530Z,8.00
2019-03-20T20:25:24.210Z,8.10
2019-03-20T20:27:53.273Z,8.37
2019-03-20T20:30:23.140Z,8.00
2019-03-20T20:32:52.413Z,8.67
2019-03-20T20:35:26.039Z,8.30
2019-03-20T20:37:54.788Z,8.20
2019-03-20T20:40:24.011Z,8.20
2019-03-20T20:42:53.226Z,8.37
2019-03-20T20:45:27.413Z,8.53
2019-03-20T20:47:58.153Z,8.83
2019-03-20T20:50:29.138Z,8.13
2019-03-20T20:53:03.017Z,8.60
2019-03-20T20:55:32.362Z,8.93
2019-03-20T20:58:02.215Z,8.03
2019-03-20T21:00:32.433Z,8.00
2019-03-20T21:03:02.373Z,9.03
2019-03-20T21:05:38.758Z,10.13
2019-03-20T21:08:13.340Z,8.67
2019-03-20T21:10:43.328Z,9.07
2019-03-20T21:13:24.303Z,9.60
2019-03-20T21:16:11.934Z,9.50
2019-03-20T21:19:19.926Z,9.83
2019-03-20T21:22:43.930Z,10.63
2019-03-20T21:25:26.014Z,9.83
2019-03-20T21:28:57.559Z,10.37
2019-03-20T21:31:49.518Z,36.33
2019-03-20T21:35:23.745Z,10.07
2019-03-20T21:38:12.935Z,11.17
2019-03-20T21:41:33.621Z,10.30
2019-03-20T21:44:42.632Z,11.13
2019-03-20T21:47:38.597Z,10.27
2019-03-20T21:50:40.654Z,11.43
2019-03-20T21:53:12.317Z,10.17
2019-03-20T21:59:52.395Z,10.40
2019-03-20T22:02:42.761Z,11.00
2019-03-20T22:05:40.308Z,11.17
2019-03-20T22:08:17.547Z,9.93
2019-03-20T22:11:22.468Z,9.80
2019-03-20T22:14:02.310Z,10.50
2019-03-20T22:17:32.356Z,10.50
2019-03-20T22:20:56.289Z,11.10
2019-03-20T22:23:57.366Z,11.33
2019-03-20T22:27:02.078Z,11.10
2019-03-20T22:29:33.493Z,11.10
2019-03-20T22:32:53.315Z,10.60
2019-03-20T22:35:46.710Z,10.87
2019-03-20T22:38:37.779Z,11.53
2019-03-20T22:41:43.426Z,11.20
2019-03-20T22:44:14.284Z,11.37
2019-03-20T22:47:35.052Z,12.00
2019-03-20T22:50:33.500Z,12.27
2019-03-20T22:53:38.109Z,11.83
2019-03-20T22:57:45.222Z,11.60
2019-03-20T22:59:47.374Z,11.83
2019-03-20T23:03:08.632Z,12.50
2019-03-20T23:05:46.515Z,12.53
2019-03-20T23:08:16.270Z,11.23
2019-03-20T23:10:47.678Z,12.07
2019-03-20T23:13:19.149Z,12.63
2019-03-20T23:15:52.771Z,12.10
2019-03-20T23:18:25.186Z,11.53
2019-03-20T23:20:56.360Z,11.37
2019-03-20T23:23:26.152Z,11.23
2019-03-20T23:25:56.731Z,11.70
2019-03-20T23:28:26.946Z,10.73
2019-03-20T23:31:41.036Z,10.43
2019-03-20T23:34:15.806Z,10.07
2019-03-20T23:36:54.697Z,10.30
2019-03-20T23:51:01.722Z,10.53
2019-03-20T23:53:45.634Z,10.70
2019-03-20T23:56:19.995Z,10.53
2019-03-20T23:58:54.228Z,10.97
